This is the latest recevied weather packets stored in our database for station/object EA4IAJ-12. If no packets are shown the sender has not sent any weather packets the latest 10 day(s).
| Time | Temp. | Humidity | Pressure | Rain* | Wind** | Luminosity | Snow |
|---|---|---|---|---|---|---|---|
| 1777895126 | 21.11° C | 100% | 1033.4 hPa | - | - | - | - |
| 1777894225 | 21.67° C | 100% | 1036.6 hPa | - | - | - | - |
| 1777893324 | 21.67° C | 100% | 1035.7 hPa | - | - | - | - |
| 1777892424 | 22.22° C | 100% | 1040.2 hPa | - | - | - | - |
| 1777891523 | 22.22° C | 100% | 1039.7 hPa | - | - | - | - |
| 1777890623 | 21.11° C | 100% | 1034.6 hPa | - | - | - | - |
| 1777889722 | 21.67° C | 100% | 1039 hPa | - | - | - | - |
| 1777888822 | 20.56° C | 100% | 1034 hPa | - | - | - | - |
| 1777887934 | 18.33° C | 100% | 1025 hPa | - | - | - | - |
| 1777887033 | 20° C | 100% | 1032 hPa | - | - | - | - |
| 1777886132 | 17.78° C | 100% | 1022.3 hPa | - | - | - | - |
| 1777885232 | 17.78° C | 100% | 1022.1 hPa | - | - | - | - |
| 1777884826 | 18.33° C | 100% | 1024.4 hPa | - | - | - | - |
| 1777884332 | 18.33° C | 100% | 1024.4 hPa | - | - | - | - |
| 1777883431 | 16.67° C | 100% | 1016.5 hPa | - | - | - | - |
| 1777882530 | 15.56° C | 100% | 1013.1 hPa | - | - | - | - |
| 1777881630 | 14.44° C | 100% | 1009.1 hPa | - | - | - | - |
| 1777880729 | 15° C | 100% | 1011.7 hPa | - | - | - | - |
| 1777879829 | 14.44° C | 100% | 1007.6 hPa | - | - | - | - |
| 1777878928 | 13.89° C | 100% | 1006.7 hPa | - | - | - | - |
| 1777878028 | 14.44° C | 100% | 1008.6 hPa | - | - | - | - |
| 1777877127 | 13.89° C | 100% | 1006.2 hPa | - | - | - | - |
| 1777876227 | 12.22° C | 100% | 998.8 hPa | - | - | - | - |
| 1777875326 | 10.56° C | 100% | 993.5 hPa | - | - | - | - |
| 1777874426 | 10.56° C | 100% | 992.5 hPa | - | - | - | - |
* Rain since midnight (hover to see other rain measurements)
** Current wind speed in m/s (hover to see current wind gust speed)